createdAt,value
2017-12-31T00:00:30.256Z,9.72
2017-12-31T00:01:36.326Z,9.73
2017-12-31T00:02:42.675Z,9.70
2017-12-31T00:03:49.026Z,9.69
2017-12-31T00:04:55.358Z,9.70
2017-12-31T00:06:01.809Z,9.65
2017-12-31T00:07:08.173Z,9.65
2017-12-31T00:08:14.439Z,9.64
2017-12-31T00:09:20.791Z,9.62
2017-12-31T00:10:27.624Z,9.62
2017-12-31T00:11:35.363Z,9.64
2017-12-31T00:12:41.957Z,9.62
2017-12-31T00:13:48.295Z,9.64
2017-12-31T00:14:58.511Z,9.68
2017-12-31T00:16:09.711Z,9.68
2017-12-31T00:17:15.984Z,9.71
2017-12-31T00:18:22.314Z,9.71
2017-12-31T00:19:28.579Z,9.74
2017-12-31T00:20:34.839Z,9.74
2017-12-31T00:21:40.492Z,9.76
2017-12-31T00:22:46.716Z,9.73
2017-12-31T00:23:52.960Z,9.71
2017-12-31T00:24:59.851Z,9.67
2017-12-31T00:26:06.198Z,9.65
2017-12-31T00:27:12.418Z,9.64
2017-12-31T00:28:18.752Z,9.70
2017-12-31T00:29:24.986Z,9.72
2017-12-31T00:30:31.348Z,9.73
2017-12-31T00:31:37.846Z,9.78
2017-12-31T00:32:44.136Z,9.80
2017-12-31T00:33:50.329Z,9.81
2017-12-31T00:34:56.563Z,9.83
2017-12-31T00:36:06.592Z,9.76
2017-12-31T00:37:13.824Z,9.75
2017-12-31T00:38:20.296Z,9.75
2017-12-31T00:39:26.592Z,9.77
2017-12-31T00:40:32.891Z,9.78
2017-12-31T00:41:39.222Z,9.82
2017-12-31T00:42:45.542Z,9.87
2017-12-31T00:43:51.798Z,9.84
2017-12-31T00:44:58.234Z,9.83
2017-12-31T00:46:05.426Z,9.82
2017-12-31T00:47:12.574Z,9.83
2017-12-31T00:48:18.868Z,9.84
2017-12-31T00:49:25.157Z,9.84
2017-12-31T00:50:31.442Z,9.80
2017-12-31T00:51:37.707Z,9.82
2017-12-31T00:52:44.402Z,9.82
2017-12-31T00:53:50.682Z,9.84
2017-12-31T00:54:56.911Z,9.88
2017-12-31T00:56:03.204Z,9.89
2017-12-31T00:57:09.490Z,9.86
2017-12-31T00:58:19.420Z,9.91
2017-12-31T00:59:25.774Z,9.90
2017-12-31T01:00:32.009Z,9.89
2017-12-31T01:01:38.255Z,9.90
2017-12-31T01:02:44.565Z,9.88
2017-12-31T01:03:50.722Z,9.88
2017-12-31T01:04:57.004Z,9.86
2017-12-31T01:06:03.891Z,9.79
2017-12-31T01:07:15.162Z,9.83
2017-12-31T01:08:22.621Z,9.87
2017-12-31T01:09:28.997Z,9.83
2017-12-31T01:10:35.245Z,9.86
2017-12-31T01:11:41.493Z,9.87
2017-12-31T01:12:47.732Z,9.88
2017-12-31T01:13:53.999Z,9.86
2017-12-31T01:15:00.291Z,9.87
2017-12-31T01:16:06.538Z,9.85
2017-12-31T01:17:12.817Z,9.86
2017-12-31T01:18:19.055Z,9.89
2017-12-31T01:19:25.675Z,9.90
2017-12-31T01:20:31.912Z,9.92
2017-12-31T01:21:38.092Z,9.94
2017-12-31T01:22:44.407Z,9.94
2017-12-31T01:23:50.647Z,9.95
2017-12-31T01:25:07.645Z,9.91
2017-12-31T01:26:13.865Z,9.90
2017-12-31T01:27:20.098Z,9.90
2017-12-31T01:28:26.317Z,9.94
2017-12-31T01:29:33.091Z,9.90
2017-12-31T01:30:39.434Z,9.92
2017-12-31T01:31:45.516Z,9.86
2017-12-31T01:32:51.775Z,9.90
2017-12-31T01:33:57.967Z,9.89
2017-12-31T01:35:04.223Z,9.84
2017-12-31T01:36:12.564Z,9.85
2017-12-31T01:37:18.830Z,9.89
2017-12-31T01:38:25.155Z,9.91
2017-12-31T01:39:31.390Z,9.94
2017-12-31T01:40:37.661Z,9.90
2017-12-31T01:41:44.810Z,9.91
2017-12-31T01:42:51.394Z,9.90
2017-12-31T01:43:58.503Z,9.89
2017-12-31T01:45:04.739Z,9.83
2017-12-31T01:46:10.986Z,9.83
2017-12-31T01:47:18.125Z,9.84
2017-12-31T01:48:24.364Z,9.89
2017-12-31T01:49:30.800Z,9.85
2017-12-31T01:50:37.015Z,9.80
2017-12-31T01:51:43.249Z,9.80
2017-12-31T01:52:49.530Z,9.80
2017-12-31T01:53:55.766Z,9.81
2017-12-31T01:55:02.218Z,9.92
2017-12-31T01:56:08.462Z,9.89
2017-12-31T01:57:14.734Z,9.93
2017-12-31T01:58:20.927Z,9.91
2017-12-31T01:59:27.505Z,9.92
2017-12-31T02:00:33.689Z,9.87
2017-12-31T02:01:38.597Z,9.84
2017-12-31T02:02:44.590Z,9.84
2017-12-31T02:03:54.854Z,9.87
2017-12-31T02:05:01.046Z,9.92
2017-12-31T02:06:06.966Z,9.91
2017-12-31T02:07:13.202Z,9.84
2017-12-31T02:08:19.416Z,9.77
2017-12-31T02:09:26.546Z,9.72
2017-12-31T02:10:34.646Z,9.74
2017-12-31T02:11:41.517Z,9.73
2017-12-31T02:12:48.620Z,9.79
2017-12-31T02:13:54.809Z,9.84
2017-12-31T02:15:01.143Z,9.86
2017-12-31T02:16:07.381Z,9.90
2017-12-31T02:17:13.462Z,9.84
2017-12-31T02:18:19.283Z,9.83
2017-12-31T02:19:25.464Z,9.79
2017-12-31T02:20:31.645Z,9.77
2017-12-31T02:21:38.868Z,9.76
2017-12-31T02:22:46.044Z,9.73
2017-12-31T02:23:52.243Z,9.74
2017-12-31T02:24:58.497Z,9.78
2017-12-31T02:26:04.716Z,9.77
2017-12-31T02:27:11.678Z,9.72
2017-12-31T02:28:20.723Z,9.73
2017-12-31T02:29:26.909Z,9.78
2017-12-31T02:30:33.142Z,9.75
2017-12-31T02:31:39.335Z,9.76
2017-12-31T02:32:45.584Z,9.83
2017-12-31T02:33:51.750Z,9.82
2017-12-31T02:34:58.032Z,9.77
2017-12-31T02:36:05.154Z,9.77
2017-12-31T02:37:11.381Z,9.81
2017-12-31T02:38:17.269Z,9.79
2017-12-31T02:39:29.924Z,9.79
2017-12-31T02:40:36.139Z,9.81
2017-12-31T02:41:42.380Z,9.81
2017-12-31T02:42:48.717Z,9.86
2017-12-31T02:43:55.482Z,9.90
2017-12-31T02:45:02.032Z,9.89
2017-12-31T02:46:08.301Z,9.87
2017-12-31T02:47:14.513Z,9.86
2017-12-31T02:48:20.733Z,9.83
2017-12-31T02:49:26.685Z,9.77
2017-12-31T02:50:33.739Z,9.73
2017-12-31T02:51:39.947Z,9.73
2017-12-31T02:52:46.228Z,9.70
2017-12-31T02:53:55.265Z,9.75
2017-12-31T02:55:01.494Z,9.75
2017-12-31T02:56:07.704Z,9.72
2017-12-31T02:57:14.549Z,9.71
2017-12-31T02:58:20.763Z,9.75
2017-12-31T03:00:38.276Z,9.74
2017-12-31T03:01:44.482Z,9.72
2017-12-31T03:02:50.722Z,9.78
2017-12-31T03:03:56.946Z,9.77
2017-12-31T03:05:03.259Z,9.84
2017-12-31T03:06:09.468Z,9.78
2017-12-31T03:07:15.733Z,9.79
2017-12-31T03:08:22.168Z,9.84
2017-12-31T03:09:28.430Z,9.87
2017-12-31T03:10:34.342Z,9.83
2017-12-31T03:11:40.533Z,9.85
2017-12-31T03:12:46.741Z,9.84
2017-12-31T03:13:52.972Z,9.80
2017-12-31T03:14:59.078Z,9.85
2017-12-31T03:16:07.191Z,9.82
2017-12-31T03:17:13.513Z,9.82
2017-12-31T03:18:19.781Z,9.79
2017-12-31T03:19:25.986Z,9.79
2017-12-31T03:20:32.158Z,9.79
2017-12-31T03:21:38.586Z,9.76
2017-12-31T03:22:44.950Z,9.78
2017-12-31T03:23:51.153Z,9.82
2017-12-31T03:24:57.041Z,9.82
2017-12-31T03:26:03.699Z,9.89
2017-12-31T03:27:09.880Z,9.86
2017-12-31T03:28:16.121Z,9.81
2017-12-31T03:29:22.305Z,9.80
2017-12-31T03:30:29.382Z,9.80
2017-12-31T03:31:35.617Z,9.74
2017-12-31T03:32:41.864Z,9.69
2017-12-31T03:33:48.084Z,9.72
2017-12-31T03:34:54.498Z,9.73
2017-12-31T03:36:01.330Z,9.76
2017-12-31T03:37:07.608Z,9.79
2017-12-31T03:38:13.824Z,9.81
2017-12-31T03:39:20.052Z,9.86
2017-12-31T03:40:26.498Z,9.86
2017-12-31T03:41:32.650Z,9.85
2017-12-31T03:42:38.866Z,9.90
2017-12-31T03:43:45.059Z,9.86
2017-12-31T03:44:51.253Z,9.82
2017-12-31T03:45:57.462Z,9.81
2017-12-31T03:47:03.698Z,9.87
2017-12-31T03:48:09.934Z,9.83
2017-12-31T03:49:17.089Z,9.80
2017-12-31T03:50:24.527Z,9.80
2017-12-31T03:51:30.762Z,9.83
2017-12-31T03:52:37.002Z,9.78
2017-12-31T03:53:43.178Z,9.79
2017-12-31T03:54:49.384Z,9.83
2017-12-31T03:55:56.002Z,9.86
2017-12-31T03:57:02.512Z,9.86
2017-12-31T03:58:08.719Z,9.80
2017-12-31T03:59:14.994Z,9.77
2017-12-31T04:00:20.879Z,9.78
2017-12-31T04:01:26.757Z,9.77
2017-12-31T04:02:32.992Z,9.78
2017-12-31T04:03:39.227Z,9.76
2017-12-31T04:04:45.762Z,9.73
2017-12-31T04:05:52.251Z,9.71
2017-12-31T04:06:58.507Z,9.70
2017-12-31T04:08:04.726Z,9.75
2017-12-31T04:09:10.937Z,9.71
2017-12-31T04:10:17.109Z,9.71
2017-12-31T04:11:23.347Z,9.74
2017-12-31T04:12:29.630Z,9.72
2017-12-31T04:13:35.794Z,9.72
2017-12-31T04:14:42.918Z,9.71
2017-12-31T04:15:49.142Z,9.72
2017-12-31T04:16:55.360Z,9.81
2017-12-31T04:18:01.686Z,9.78
2017-12-31T04:19:08.140Z,9.76
2017-12-31T04:20:14.546Z,9.72
2017-12-31T04:21:20.412Z,9.65
2017-12-31T04:22:26.622Z,9.69
2017-12-31T04:23:32.836Z,9.69
2017-12-31T04:24:39.082Z,9.72
2017-12-31T04:25:45.244Z,9.69
2017-12-31T04:26:51.409Z,9.66
2017-12-31T04:27:57.732Z,9.64
2017-12-31T04:29:03.899Z,9.62
2017-12-31T04:30:10.107Z,9.62
2017-12-31T04:31:22.755Z,9.61
2017-12-31T04:32:29.098Z,9.64
2017-12-31T04:33:35.399Z,9.62
2017-12-31T04:34:46.593Z,9.63
2017-12-31T04:35:52.820Z,9.54
2017-12-31T04:36:59.057Z,9.50
2017-12-31T04:38:05.004Z,9.46
2017-12-31T04:39:11.238Z,9.48
2017-12-31T04:40:17.450Z,9.47
2017-12-31T04:41:23.723Z,9.41
2017-12-31T04:42:29.970Z,9.40
2017-12-31T04:43:36.632Z,9.41
2017-12-31T04:44:43.033Z,9.44
2017-12-31T04:45:49.283Z,9.44
2017-12-31T04:46:55.508Z,9.43
2017-12-31T04:48:01.701Z,9.43
2017-12-31T04:49:07.885Z,9.40
2017-12-31T04:50:14.132Z,9.40
2017-12-31T04:51:20.381Z,9.41
2017-12-31T04:52:26.674Z,9.42
2017-12-31T04:53:32.878Z,9.41
2017-12-31T04:54:39.129Z,9.41
2017-12-31T04:55:45.347Z,9.37
2017-12-31T04:56:51.551Z,9.37
2017-12-31T04:57:58.168Z,9.34
2017-12-31T04:59:04.475Z,9.33
2017-12-31T05:00:10.665Z,9.32
2017-12-31T05:01:17.037Z,9.36
2017-12-31T05:02:23.274Z,9.38
2017-12-31T05:03:29.450Z,9.33
2017-12-31T05:04:35.659Z,9.27
2017-12-31T05:05:41.850Z,9.26
2017-12-31T05:06:47.694Z,9.26
2017-12-31T05:07:53.867Z,9.22
2017-12-31T05:09:00.158Z,9.23
2017-12-31T05:10:06.386Z,9.20
2017-12-31T05:11:12.575Z,9.20
2017-12-31T05:12:18.771Z,9.19
2017-12-31T05:13:28.040Z,9.15
2017-12-31T05:14:34.325Z,9.12
2017-12-31T05:15:40.522Z,9.11
2017-12-31T05:16:46.752Z,9.14
2017-12-31T05:17:52.999Z,9.17
2017-12-31T05:18:59.263Z,9.16
2017-12-31T05:20:05.461Z,9.17
2017-12-31T05:21:11.766Z,9.17
2017-12-31T05:22:18.943Z,9.17
2017-12-31T05:23:25.195Z,9.15
2017-12-31T05:24:31.528Z,9.15
2017-12-31T05:25:41.750Z,9.14
2017-12-31T05:26:47.946Z,9.13
2017-12-31T05:27:54.200Z,9.11
2017-12-31T05:29:00.426Z,9.10
2017-12-31T05:30:06.659Z,9.08
2017-12-31T05:31:12.879Z,9.07
2017-12-31T05:32:19.058Z,9.07
2017-12-31T05:33:25.231Z,9.07
2017-12-31T05:34:31.467Z,9.06
2017-12-31T05:35:37.723Z,9.08
2017-12-31T05:36:43.927Z,9.07
2017-12-31T05:37:50.126Z,9.10
2017-12-31T05:38:56.612Z,9.13
2017-12-31T05:40:02.895Z,9.12
2017-12-31T05:41:12.557Z,9.07
2017-12-31T05:42:19.665Z,9.07
2017-12-31T05:43:25.844Z,9.06
2017-12-31T05:44:32.033Z,9.08
2017-12-31T05:45:38.277Z,9.09
2017-12-31T05:46:44.531Z,9.08
2017-12-31T05:47:50.807Z,9.10
2017-12-31T05:48:57.157Z,9.09
2017-12-31T05:50:03.415Z,9.10
2017-12-31T05:51:10.228Z,9.06
2017-12-31T05:52:17.505Z,9.08
2017-12-31T05:53:24.498Z,9.10
2017-12-31T05:54:33.610Z,9.12
2017-12-31T05:55:42.594Z,9.11
2017-12-31T05:56:51.123Z,9.09
2017-12-31T05:57:59.501Z,9.08
2017-12-31T05:59:09.191Z,9.12
2017-12-31T06:00:16.797Z,9.09
2017-12-31T06:01:23.291Z,9.07
2017-12-31T06:02:29.659Z,9.11
2017-12-31T06:03:36.262Z,9.13
2017-12-31T06:04:44.150Z,9.17
2017-12-31T06:05:51.061Z,9.19
2017-12-31T06:06:57.701Z,9.20
2017-12-31T06:08:05.544Z,9.20
2017-12-31T06:09:15.395Z,9.19
2017-12-31T06:10:24.082Z,9.20
2017-12-31T06:11:30.986Z,9.18
2017-12-31T06:12:37.529Z,9.14
2017-12-31T06:13:45.112Z,9.14
2017-12-31T06:14:51.994Z,9.12
2017-12-31T06:15:59.065Z,9.13
2017-12-31T06:17:07.066Z,9.20
2017-12-31T06:18:14.537Z,9.23
2017-12-31T06:19:21.632Z,9.21
2017-12-31T06:20:28.406Z,9.20
2017-12-31T06:21:35.285Z,9.13
2017-12-31T06:22:44.513Z,9.12
2017-12-31T06:23:52.017Z,9.10
2017-12-31T06:24:59.106Z,9.05
2017-12-31T06:26:09.225Z,9.06
2017-12-31T06:27:15.778Z,9.04
2017-12-31T06:28:24.450Z,9.09
2017-12-31T06:29:30.983Z,9.06
2017-12-31T06:30:39.063Z,9.02
2017-12-31T06:31:46.130Z,8.99
2017-12-31T06:32:52.639Z,9.02
2017-12-31T06:34:00.563Z,9.01
2017-12-31T06:35:07.011Z,9.05
2017-12-31T06:36:14.265Z,9.06
2017-12-31T06:37:20.922Z,9.02
2017-12-31T06:38:28.125Z,8.99
2017-12-31T06:39:34.833Z,8.98
2017-12-31T06:40:41.937Z,9.04
2017-12-31T06:41:49.477Z,9.03
2017-12-31T06:42:56.471Z,9.01
2017-12-31T06:44:04.115Z,9.00
2017-12-31T06:45:11.275Z,8.98
2017-12-31T06:46:18.972Z,8.92
2017-12-31T06:47:25.909Z,8.89
2017-12-31T06:48:32.544Z,8.91
2017-12-31T06:49:41.999Z,8.93
2017-12-31T06:50:49.857Z,8.95
2017-12-31T06:51:56.263Z,8.96
2017-12-31T06:53:02.583Z,8.96
2017-12-31T06:54:08.867Z,8.91
2017-12-31T06:55:15.032Z,8.89
2017-12-31T06:56:21.321Z,8.87
2017-12-31T06:57:27.898Z,8.86
2017-12-31T06:58:34.129Z,8.92
2017-12-31T06:59:39.919Z,8.97
2017-12-31T07:00:46.111Z,9.00
2017-12-31T07:01:52.323Z,9.02
2017-12-31T07:02:59.467Z,9.03
2017-12-31T07:04:05.750Z,8.98
2017-12-31T07:05:11.957Z,8.93
2017-12-31T07:06:18.184Z,8.94
2017-12-31T07:07:24.381Z,8.92
2017-12-31T07:08:30.604Z,8.92
2017-12-31T07:09:36.838Z,8.97
2017-12-31T07:10:43.187Z,8.97
2017-12-31T07:11:49.441Z,8.99
2017-12-31T07:12:55.849Z,9.01
2017-12-31T07:14:02.233Z,8.99
2017-12-31T07:15:08.436Z,8.98
2017-12-31T07:16:15.667Z,8.98
2017-12-31T07:17:22.836Z,8.95
2017-12-31T07:18:29.092Z,9.01
2017-12-31T07:19:35.283Z,9.01
2017-12-31T07:20:41.506Z,9.01
2017-12-31T07:21:47.709Z,9.05
2017-12-31T07:22:53.972Z,9.01
2017-12-31T07:24:00.206Z,8.92
2017-12-31T07:25:06.397Z,8.91
2017-12-31T07:26:12.645Z,8.91
2017-12-31T07:27:18.830Z,8.90
2017-12-31T07:28:25.057Z,8.92
2017-12-31T07:29:31.614Z,8.91
2017-12-31T07:30:38.003Z,8.98
2017-12-31T07:31:44.282Z,9.07
2017-12-31T07:32:51.797Z,9.03
2017-12-31T07:34:02.533Z,9.05
2017-12-31T07:35:08.957Z,9.06
2017-12-31T07:36:16.128Z,9.10
2017-12-31T07:37:23.706Z,9.10
2017-12-31T07:38:30.169Z,9.06
2017-12-31T07:39:38.859Z,9.08
2017-12-31T07:40:45.386Z,9.11
2017-12-31T07:41:52.021Z,9.09
2017-12-31T07:42:59.366Z,9.14
2017-12-31T07:44:05.942Z,9.21
2017-12-31T07:45:14.051Z,9.19
2017-12-31T07:46:25.555Z,9.17
2017-12-31T07:47:36.868Z,9.16
2017-12-31T07:48:43.409Z,9.13
2017-12-31T07:49:50.169Z,9.06
2017-12-31T07:50:57.135Z,9.12
2017-12-31T07:52:03.674Z,9.15
2017-12-31T07:53:10.771Z,9.04
2017-12-31T07:54:17.152Z,9.07
2017-12-31T07:55:23.378Z,9.02
2017-12-31T07:56:30.274Z,8.97
2017-12-31T07:57:38.657Z,8.96
2017-12-31T07:58:45.975Z,9.02
2017-12-31T07:59:53.055Z,9.01
2017-12-31T08:01:01.351Z,9.00
2017-12-31T08:02:08.606Z,8.99
2017-12-31T08:03:16.945Z,9.00
2017-12-31T08:04:23.914Z,8.97
2017-12-31T08:05:31.536Z,9.04
2017-12-31T08:06:38.477Z,9.10
2017-12-31T08:07:50.229Z,9.15
2017-12-31T08:08:57.454Z,9.15
2017-12-31T08:10:05.318Z,9.14
2017-12-31T08:11:12.635Z,9.15
2017-12-31T08:12:19.159Z,9.18
2017-12-31T08:13:27.148Z,9.17
2017-12-31T08:14:34.743Z,9.15
2017-12-31T08:15:41.224Z,9.09
2017-12-31T08:16:47.933Z,9.12
2017-12-31T08:17:54.218Z,9.13
2017-12-31T08:19:00.853Z,9.17
2017-12-31T08:20:08.911Z,9.18
2017-12-31T08:21:16.270Z,9.17
2017-12-31T08:22:24.163Z,9.18
2017-12-31T08:23:32.321Z,9.19
2017-12-31T08:24:40.003Z,9.24
2017-12-31T08:25:46.767Z,9.28
2017-12-31T08:26:53.436Z,9.32
2017-12-31T08:28:00.355Z,9.25
2017-12-31T08:29:06.603Z,9.24
2017-12-31T08:30:12.828Z,9.20
2017-12-31T08:31:19.096Z,9.19
2017-12-31T08:32:25.258Z,9.24
2017-12-31T08:33:31.154Z,9.25
2017-12-31T08:34:37.998Z,9.26
2017-12-31T08:35:44.249Z,9.25
2017-12-31T08:36:50.523Z,9.23
2017-12-31T08:37:56.777Z,9.26
2017-12-31T08:39:03.094Z,9.31
2017-12-31T08:40:09.686Z,9.34
2017-12-31T08:41:15.974Z,9.35
2017-12-31T08:42:22.154Z,9.32
2017-12-31T08:43:28.558Z,9.34
2017-12-31T08:44:35.513Z,9.37
2017-12-31T08:45:42.487Z,9.38
2017-12-31T08:46:48.704Z,9.37
2017-12-31T08:47:54.944Z,9.39
2017-12-31T08:49:00.978Z,9.38
2017-12-31T08:50:07.155Z,9.42
2017-12-31T08:51:13.351Z,9.43
2017-12-31T08:52:19.531Z,9.44
2017-12-31T08:53:26.915Z,9.46
2017-12-31T08:54:34.622Z,9.51
2017-12-31T08:55:42.272Z,9.56
2017-12-31T08:56:51.642Z,9.53
2017-12-31T08:57:59.435Z,9.57
2017-12-31T08:59:06.777Z,9.68
2017-12-31T09:00:14.963Z,9.71
2017-12-31T09:01:22.749Z,9.76
2017-12-31T09:02:30.427Z,9.79
2017-12-31T09:03:37.442Z,9.81
2017-12-31T09:04:49.882Z,9.84
2017-12-31T09:07:14.586Z,9.90
2017-12-31T09:08:21.899Z,9.97
2017-12-31T09:09:29.508Z,9.98
2017-12-31T09:10:38.127Z,9.97
2017-12-31T09:11:45.702Z,9.94
2017-12-31T09:12:53.314Z,10.03
2017-12-31T09:14:00.781Z,9.99
2017-12-31T09:15:09.022Z,9.98
2017-12-31T09:16:16.369Z,10.00
2017-12-31T09:17:26.788Z,10.01
2017-12-31T09:18:34.543Z,10.03
2017-12-31T09:19:42.521Z,10.08
2017-12-31T09:20:50.278Z,10.09
2017-12-31T09:21:57.281Z,10.11
2017-12-31T09:23:09.800Z,10.07
2017-12-31T09:24:18.158Z,10.04
2017-12-31T09:25:25.765Z,10.07
2017-12-31T09:26:31.985Z,10.12
2017-12-31T09:27:39.057Z,10.16
2017-12-31T09:28:46.674Z,10.18
2017-12-31T09:29:55.190Z,10.25
2017-12-31T09:31:02.730Z,10.26
2017-12-31T09:32:10.343Z,10.33
2017-12-31T09:33:20.381Z,10.41
2017-12-31T09:34:27.128Z,10.43
2017-12-31T09:35:34.011Z,10.41
2017-12-31T09:36:41.824Z,10.39
2017-12-31T09:37:49.471Z,10.40
2017-12-31T09:38:57.958Z,10.46
2017-12-31T09:40:05.441Z,10.49
2017-12-31T09:41:12.471Z,10.52
2017-12-31T09:42:20.119Z,10.51
2017-12-31T09:43:28.423Z,10.53
2017-12-31T09:44:35.775Z,10.54
2017-12-31T09:45:43.525Z,10.58
2017-12-31T09:46:51.627Z,10.68
2017-12-31T09:48:00.064Z,10.78
2017-12-31T09:49:07.704Z,10.80
2017-12-31T09:50:15.897Z,10.80
2017-12-31T09:51:23.523Z,10.90
2017-12-31T09:52:31.117Z,10.92
2017-12-31T09:53:38.794Z,10.85
2017-12-31T09:54:45.815Z,10.86
2017-12-31T09:55:53.815Z,10.86
2017-12-31T09:57:00.084Z,10.86
2017-12-31T09:58:07.064Z,10.89
2017-12-31T09:59:14.735Z,10.97
2017-12-31T10:00:22.414Z,11.04
2017-12-31T10:01:30.442Z,11.08
2017-12-31T10:02:37.699Z,11.09
2017-12-31T10:03:45.693Z,11.13
2017-12-31T10:04:53.442Z,11.15
2017-12-31T10:06:01.221Z,11.20
2017-12-31T10:07:14.364Z,11.20
2017-12-31T10:08:21.475Z,11.24
2017-12-31T10:09:29.444Z,11.29
2017-12-31T10:10:37.116Z,11.26
2017-12-31T10:11:44.124Z,11.28
2017-12-31T10:12:50.382Z,11.27
2017-12-31T10:13:56.593Z,11.22
2017-12-31T10:15:02.869Z,11.24
2017-12-31T10:16:09.142Z,11.30
2017-12-31T10:17:15.366Z,11.35
2017-12-31T10:18:24.571Z,11.42
2017-12-31T10:19:32.107Z,11.42
2017-12-31T10:20:39.659Z,11.37
2017-12-31T10:21:47.115Z,11.35
2017-12-31T10:22:54.640Z,11.37
2017-12-31T10:24:02.122Z,11.39
2017-12-31T10:25:09.720Z,11.41
2017-12-31T10:26:17.999Z,11.32
2017-12-31T10:27:26.574Z,11.29
2017-12-31T10:28:33.496Z,11.32
2017-12-31T10:29:40.301Z,11.40
2017-12-31T10:30:46.571Z,11.41
2017-12-31T10:31:52.810Z,11.43
2017-12-31T10:32:59.033Z,11.49
2017-12-31T10:34:05.316Z,11.53
2017-12-31T10:35:11.568Z,11.50
2017-12-31T10:36:17.767Z,11.49
2017-12-31T10:37:24.009Z,11.48
2017-12-31T10:38:30.235Z,11.50
2017-12-31T10:39:36.227Z,11.56
2017-12-31T10:40:42.490Z,11.57
2017-12-31T10:41:48.688Z,11.62
2017-12-31T10:42:54.849Z,11.63
2017-12-31T10:44:01.068Z,11.60
2017-12-31T10:45:07.320Z,11.68
2017-12-31T10:46:13.350Z,11.68
2017-12-31T10:47:19.560Z,11.72
2017-12-31T10:48:25.774Z,11.74
2017-12-31T10:49:32.005Z,11.74
2017-12-31T10:50:38.200Z,11.78
2017-12-31T10:51:44.407Z,11.84
2017-12-31T10:52:50.627Z,11.81
2017-12-31T10:53:56.869Z,11.84
2017-12-31T10:55:03.057Z,11.84
2017-12-31T10:56:09.235Z,11.82
2017-12-31T10:57:15.453Z,11.87
2017-12-31T10:58:21.684Z,11.84
2017-12-31T10:59:27.884Z,11.89
2017-12-31T11:00:37.193Z,11.88
2017-12-31T11:01:43.156Z,11.86
2017-12-31T11:02:49.382Z,11.86
2017-12-31T11:03:55.623Z,11.89
2017-12-31T11:05:01.990Z,11.92
2017-12-31T11:06:08.154Z,11.88
2017-12-31T11:07:14.403Z,11.88
2017-12-31T11:08:20.583Z,11.82
2017-12-31T11:09:26.763Z,11.87
2017-12-31T11:10:36.942Z,11.90
2017-12-31T11:11:43.202Z,11.87
2017-12-31T11:12:49.432Z,11.88
2017-12-31T11:13:55.700Z,11.89
2017-12-31T11:15:01.975Z,11.88
2017-12-31T11:16:08.297Z,11.90
2017-12-31T11:17:14.463Z,11.93
2017-12-31T11:18:20.714Z,11.97
2017-12-31T11:19:26.965Z,11.94
2017-12-31T11:20:33.166Z,11.99
2017-12-31T11:21:39.339Z,12.01
2017-12-31T11:22:45.633Z,11.98
2017-12-31T11:23:51.897Z,12.01
2017-12-31T11:24:58.131Z,12.03
2017-12-31T11:26:04.349Z,12.05
2017-12-31T11:27:10.596Z,12.04
2017-12-31T11:28:16.794Z,12.05
2017-12-31T11:29:23.305Z,12.03
2017-12-31T11:30:29.508Z,12.04
2017-12-31T11:31:35.793Z,12.08
2017-12-31T11:32:42.022Z,12.05
2017-12-31T11:33:48.434Z,12.03
2017-12-31T11:34:54.620Z,12.09
2017-12-31T11:36:00.789Z,12.12
2017-12-31T11:37:07.099Z,12.11
2017-12-31T11:38:13.154Z,12.04
2017-12-31T11:39:19.434Z,12.08
2017-12-31T11:40:25.625Z,12.01
2017-12-31T11:41:31.832Z,12.00
2017-12-31T11:42:38.074Z,12.06
2017-12-31T11:43:44.290Z,12.10
2017-12-31T11:44:50.506Z,12.12
2017-12-31T11:45:56.753Z,12.15
2017-12-31T11:47:03.230Z,12.16
2017-12-31T11:48:09.466Z,12.17
2017-12-31T11:49:16.653Z,12.22
2017-12-31T11:50:23.017Z,12.21
2017-12-31T11:51:29.199Z,12.27
2017-12-31T11:52:35.444Z,12.37
2017-12-31T11:53:41.700Z,12.43
2017-12-31T11:54:48.188Z,12.45
2017-12-31T11:55:54.373Z,12.44
2017-12-31T11:57:00.614Z,12.41
2017-12-31T11:58:06.874Z,12.49
2017-12-31T11:59:13.077Z,12.58
2017-12-31T12:00:19.292Z,12.62
2017-12-31T12:01:25.550Z,12.66
2017-12-31T12:02:31.907Z,12.73
2017-12-31T12:03:38.106Z,12.73
2017-12-31T12:04:44.358Z,12.74
2017-12-31T12:05:50.566Z,12.73
2017-12-31T12:06:56.801Z,12.73
2017-12-31T12:08:03.088Z,12.79
2017-12-31T12:09:09.347Z,12.76
2017-12-31T12:10:15.594Z,12.76
2017-12-31T12:11:21.906Z,12.75
2017-12-31T12:12:28.220Z,12.82
2017-12-31T12:13:34.433Z,12.83
2017-12-31T12:14:40.634Z,12.88
2017-12-31T12:15:48.755Z,12.88
2017-12-31T12:16:54.666Z,12.84
2017-12-31T12:18:00.985Z,12.85
2017-12-31T12:19:07.418Z,12.83
2017-12-31T12:20:13.361Z,12.83
2017-12-31T12:21:19.647Z,12.84
2017-12-31T12:22:25.974Z,12.82
2017-12-31T12:23:32.328Z,12.84
2017-12-31T12:24:38.604Z,12.75
2017-12-31T12:25:44.905Z,12.76
2017-12-31T12:26:51.202Z,12.76
2017-12-31T12:27:57.133Z,12.81
2017-12-31T12:29:03.433Z,12.83
2017-12-31T12:30:09.791Z,12.78
2017-12-31T12:31:16.503Z,12.79
2017-12-31T12:32:23.754Z,12.85
2017-12-31T12:33:30.002Z,12.92
2017-12-31T12:34:36.283Z,12.95
2017-12-31T12:35:42.627Z,12.94
2017-12-31T12:36:49.042Z,12.91
2017-12-31T12:37:55.299Z,12.93
2017-12-31T12:39:01.560Z,13.02
2017-12-31T12:40:07.957Z,12.99
2017-12-31T12:41:14.214Z,13.00
2017-12-31T12:42:20.640Z,12.98
2017-12-31T12:43:26.965Z,13.01
2017-12-31T12:44:33.248Z,13.02
2017-12-31T12:45:39.591Z,13.02
2017-12-31T12:46:45.903Z,13.02
2017-12-31T12:47:52.215Z,12.92
2017-12-31T12:48:58.181Z,12.87
2017-12-31T12:50:04.113Z,12.87
2017-12-31T12:51:10.374Z,12.91
2017-12-31T12:52:16.604Z,12.91
2017-12-31T12:53:22.878Z,12.96
2017-12-31T12:54:29.157Z,12.95
2017-12-31T12:55:35.383Z,12.92
2017-12-31T12:56:41.609Z,12.96
2017-12-31T12:57:47.835Z,13.00
2017-12-31T12:58:54.158Z,12.98
2017-12-31T13:00:00.510Z,12.97
2017-12-31T13:01:06.838Z,12.96
2017-12-31T13:02:13.143Z,12.92
2017-12-31T13:03:19.428Z,12.91
2017-12-31T13:04:26.387Z,12.91
2017-12-31T13:05:32.715Z,12.93
2017-12-31T13:06:39.176Z,12.95
2017-12-31T13:07:51.523Z,12.97
2017-12-31T13:08:57.838Z,13.00
2017-12-31T13:10:04.116Z,12.95
2017-12-31T13:11:10.392Z,12.98
2017-12-31T13:12:16.620Z,12.99
2017-12-31T13:13:22.922Z,12.94
2017-12-31T13:14:29.201Z,12.98
2017-12-31T13:15:35.478Z,13.02
2017-12-31T13:16:41.778Z,13.04
2017-12-31T13:17:48.101Z,13.06
2017-12-31T13:18:54.741Z,13.11
2017-12-31T13:20:01.564Z,13.14
2017-12-31T13:21:12.896Z,13.21
2017-12-31T13:22:19.105Z,13.25
2017-12-31T13:23:25.028Z,13.30
2017-12-31T13:24:31.365Z,13.27
2017-12-31T13:25:37.665Z,13.31
2017-12-31T13:26:43.983Z,13.36
2017-12-31T13:27:50.301Z,13.44
2017-12-31T13:28:56.545Z,13.44
2017-12-31T13:30:04.124Z,13.46
2017-12-31T13:31:10.396Z,13.41
2017-12-31T13:32:17.114Z,13.41
2017-12-31T13:33:23.316Z,13.33
2017-12-31T13:34:29.584Z,13.31
2017-12-31T13:35:35.773Z,13.32
2017-12-31T13:36:42.008Z,13.37
2017-12-31T13:37:48.731Z,13.36
2017-12-31T13:38:55.011Z,13.35
2017-12-31T13:40:01.318Z,13.26
2017-12-31T13:41:13.995Z,13.27
2017-12-31T13:42:24.210Z,13.27
2017-12-31T13:43:30.648Z,13.31
2017-12-31T13:44:36.884Z,13.36
2017-12-31T13:45:43.228Z,13.17
2017-12-31T13:46:49.509Z,13.11
2017-12-31T13:47:55.794Z,13.14
2017-12-31T13:49:02.217Z,13.17
2017-12-31T13:50:09.877Z,13.20
2017-12-31T13:51:16.066Z,13.27
2017-12-31T13:52:22.393Z,13.16
2017-12-31T13:53:28.666Z,13.12
2017-12-31T13:54:34.626Z,13.10
2017-12-31T13:55:40.915Z,13.17
2017-12-31T13:56:47.214Z,13.17
2017-12-31T13:57:53.489Z,13.19
2017-12-31T13:58:59.746Z,13.17
2017-12-31T14:00:09.502Z,13.13
2017-12-31T14:01:15.812Z,13.13
2017-12-31T14:02:22.061Z,13.15
2017-12-31T14:03:28.429Z,13.14
2017-12-31T14:04:34.700Z,13.11
2017-12-31T14:05:41.095Z,13.02
2017-12-31T14:06:47.415Z,13.02
2017-12-31T14:07:53.743Z,13.02
2017-12-31T14:08:59.956Z,12.97
2017-12-31T14:10:06.174Z,12.93
2017-12-31T14:11:12.425Z,12.93
2017-12-31T14:12:18.680Z,12.92
2017-12-31T14:13:24.848Z,12.90
2017-12-31T14:14:31.047Z,12.84
2017-12-31T14:15:37.300Z,12.74
2017-12-31T14:16:45.893Z,12.73
2017-12-31T14:17:52.308Z,12.69
2017-12-31T14:18:58.603Z,12.68
2017-12-31T14:20:04.802Z,12.65
2017-12-31T14:21:11.090Z,12.67
2017-12-31T14:22:17.359Z,12.67
2017-12-31T14:23:23.614Z,12.61
2017-12-31T14:24:29.928Z,12.60
2017-12-31T14:25:35.803Z,12.55
2017-12-31T14:26:42.051Z,12.50
2017-12-31T14:27:48.384Z,12.51
2017-12-31T14:28:54.613Z,12.45
2017-12-31T14:30:00.897Z,12.49
2017-12-31T14:31:07.026Z,12.55
2017-12-31T14:32:13.330Z,12.60
2017-12-31T14:33:19.517Z,12.54
2017-12-31T14:34:25.700Z,12.54
2017-12-31T14:35:31.985Z,12.52
2017-12-31T14:36:38.330Z,12.52
2017-12-31T14:37:44.756Z,12.56
2017-12-31T14:38:51.135Z,12.59
2017-12-31T14:39:57.703Z,12.55